Airport ID:CYTF
Update Time (UTC):17/09/2021 05:56
Wind Speed (Knots):3
Wind Direction (Magnetic):220
Temperature (°C):13.4
Dew Point (°C):9.1
Humidity (%):75
Altimeter (inHg):30.29
Density Altitude (Feet):\\\\
Visibility (Miles):6
Clouds (Hundreds of feet):NCD
Present Weather:
METAR:METAR CYTF 170600Z AUTO 20003KT 180V250 10SM NCD 13/09 A3028

The data displayed is for advisory purposes only and is not to be used for flight planning or operations.

This page is not automatically refreshed. Reload the page to see current data.